Terminal Aerodrome Forecast
Issued by NWS Rapid City, SD

Home | Current Version | Previous Version | Graphics & Text | Print | Product List | Glossary On
Versions: 1 2 3 4 5 6 7 8 9 10 11 12
483
FTUS43 KUNR 152320
TAFRAP
TAF
KRAP 152320Z 1600/1624 VRB05KT P6SM SCT250
     FM161600 34013KT P6SM SCT150=

USA.gov is the U.S. government's official web portal to all federal, state and local government web resources and services.